sensor_id;sensor_type;location;lat;lon;timestamp;temperature;humidity
32293;DHT22;43233;48.608;8.838;2023-07-09T00:02:21;21.90;45.60
32293;DHT22;43233;48.608;8.838;2023-07-09T00:04:47;21.90;48.30
32293;DHT22;43233;48.608;8.838;2023-07-09T00:07:27;22.00;45.00
32293;DHT22;43233;48.608;8.838;2023-07-09T00:09:54;22.10;44.90
32293;DHT22;43233;48.608;8.838;2023-07-09T00:12:20;22.20;44.60
32293;DHT22;43233;48.608;8.838;2023-07-09T00:14:46;22.20;44.50
32293;DHT22;43233;48.608;8.838;2023-07-09T00:17:28;22.20;44.60
32293;DHT22;43233;48.608;8.838;2023-07-09T00:19:54;22.20;44.70
32293;DHT22;43233;48.608;8.838;2023-07-09T00:22:20;22.20;44.60
32293;DHT22;43233;48.608;8.838;2023-07-09T00:24:49;22.20;44.90
32293;DHT22;43233;48.608;8.838;2023-07-09T00:27:18;22.20;44.50
32293;DHT22;43233;48.608;8.838;2023-07-09T00:29:44;22.20;44.30
32293;DHT22;43233;48.608;8.838;2023-07-09T00:32:18;22.20;45.30
32293;DHT22;43233;48.608;8.838;2023-07-09T00:34:46;22.20;44.80
32293;DHT22;43233;48.608;8.838;2023-07-09T00:37:17;22.20;45.00
32293;DHT22;43233;48.608;8.838;2023-07-09T00:39:45;22.20;45.20
32293;DHT22;43233;48.608;8.838;2023-07-09T00:42:16;22.00;45.40
32293;DHT22;43233;48.608;8.838;2023-07-09T00:44:44;22.00;45.40
32293;DHT22;43233;48.608;8.838;2023-07-09T00:47:39;22.00;45.40
32293;DHT22;43233;48.608;8.838;2023-07-09T00:50:15;22.00;45.80
32293;DHT22;43233;48.608;8.838;2023-07-09T00:52:58;21.90;45.90
32293;DHT22;43233;48.608;8.838;2023-07-09T00:55:29;21.80;46.10
32293;DHT22;43233;48.608;8.838;2023-07-09T00:58:00;21.80;46.20
32293;DHT22;43233;48.608;8.838;2023-07-09T01:00:55;21.80;46.40
32293;DHT22;43233;48.608;8.838;2023-07-09T01:03:23;21.80;46.70
32293;DHT22;43233;48.608;8.838;2023-07-09T01:05:51;21.70;46.70
32293;DHT22;43233;48.608;8.838;2023-07-09T01:08:20;21.70;46.80
32293;DHT22;43233;48.608;8.838;2023-07-09T01:10:47;21.70;46.90
32293;DHT22;43233;48.608;8.838;2023-07-09T01:13:13;21.60;46.90
32293;DHT22;43233;48.608;8.838;2023-07-09T01:15:39;21.60;47.10
32293;DHT22;43233;48.608;8.838;2023-07-09T01:18:05;21.70;47.00
32293;DHT22;43233;48.608;8.838;2023-07-09T01:20:31;21.60;47.30
32293;DHT22;43233;48.608;8.838;2023-07-09T01:22:58;21.60;47.20
32293;DHT22;43233;48.608;8.838;2023-07-09T01:25:26;21.50;47.30
32293;DHT22;43233;48.608;8.838;2023-07-09T01:27:53;21.50;47.40
32293;DHT22;43233;48.608;8.838;2023-07-09T01:30:20;21.40;47.90
32293;DHT22;43233;48.608;8.838;2023-07-09T01:32:51;21.30;48.20
32293;DHT22;43233;48.608;8.838;2023-07-09T01:35:18;21.20;48.80
32293;DHT22;43233;48.608;8.838;2023-07-09T01:37:45;21.10;49.20
32293;DHT22;43233;48.608;8.838;2023-07-09T01:40:14;21.00;49.50
32293;DHT22;43233;48.608;8.838;2023-07-09T01:42:40;20.90;50.30
32293;DHT22;43233;48.608;8.838;2023-07-09T01:45:07;20.90;50.80
32293;DHT22;43233;48.608;8.838;2023-07-09T01:47:33;20.80;51.20
32293;DHT22;43233;48.608;8.838;2023-07-09T01:49:58;20.80;51.30
32293;DHT22;43233;48.608;8.838;2023-07-09T01:52:27;20.70;51.60
32293;DHT22;43233;48.608;8.838;2023-07-09T01:54:53;20.70;51.90
32293;DHT22;43233;48.608;8.838;2023-07-09T01:57:21;20.60;52.10
32293;DHT22;43233;48.608;8.838;2023-07-09T01:59:51;20.60;52.10
32293;DHT22;43233;48.608;8.838;2023-07-09T02:02:19;20.50;52.10
32293;DHT22;43233;48.608;8.838;2023-07-09T02:04:49;20.60;52.10
32293;DHT22;43233;48.608;8.838;2023-07-09T02:07:15;20.60;52.20
32293;DHT22;43233;48.608;8.838;2023-07-09T02:09:41;20.60;52.00
32293;DHT22;43233;48.608;8.838;2023-07-09T02:12:08;20.60;52.10
32293;DHT22;43233;48.608;8.838;2023-07-09T02:14:34;20.50;52.60
32293;DHT22;43233;48.608;8.838;2023-07-09T02:16:59;20.50;52.60
32293;DHT22;43233;48.608;8.838;2023-07-09T02:19:25;20.40;53.00
32293;DHT22;43233;48.608;8.838;2023-07-09T02:21:51;20.30;53.40
32293;DHT22;43233;48.608;8.838;2023-07-09T02:24:16;20.20;53.50
32293;DHT22;43233;48.608;8.838;2023-07-09T02:26:42;20.20;53.70
32293;DHT22;43233;48.608;8.838;2023-07-09T02:29:07;20.20;53.60
32293;DHT22;43233;48.608;8.838;2023-07-09T02:31:33;20.20;53.70
32293;DHT22;43233;48.608;8.838;2023-07-09T02:33:59;20.20;53.90
32293;DHT22;43233;48.608;8.838;2023-07-09T02:36:25;20.10;54.10
32293;DHT22;43233;48.608;8.838;2023-07-09T02:38:51;20.10;54.40
32293;DHT22;43233;48.608;8.838;2023-07-09T02:41:16;20.10;54.40
32293;DHT22;43233;48.608;8.838;2023-07-09T02:43:42;20.00;54.00
32293;DHT22;43233;48.608;8.838;2023-07-09T02:46:08;20.10;58.20
32293;DHT22;43233;48.608;8.838;2023-07-09T02:48:33;20.10;54.20
32293;DHT22;43233;48.608;8.838;2023-07-09T02:50:59;20.10;54.20
32293;DHT22;43233;48.608;8.838;2023-07-09T02:53:25;20.00;54.50
32293;DHT22;43233;48.608;8.838;2023-07-09T02:55:51;20.00;54.60
32293;DHT22;43233;48.608;8.838;2023-07-09T02:58:16;20.00;54.70
32293;DHT22;43233;48.608;8.838;2023-07-09T03:00:42;20.00;54.90
32293;DHT22;43233;48.608;8.838;2023-07-09T03:03:08;19.90;54.60
32293;DHT22;43233;48.608;8.838;2023-07-09T03:05:33;20.00;54.60
32293;DHT22;43233;48.608;8.838;2023-07-09T03:07:59;20.00;54.70
32293;DHT22;43233;48.608;8.838;2023-07-09T03:10:27;19.90;55.00
32293;DHT22;43233;48.608;8.838;2023-07-09T03:12:53;19.80;55.00
32293;DHT22;43233;48.608;8.838;2023-07-09T03:15:19;19.80;55.20
32293;DHT22;43233;48.608;8.838;2023-07-09T03:17:44;19.70;56.40
32293;DHT22;43233;48.608;8.838;2023-07-09T03:20:10;19.70;55.90
32293;DHT22;43233;48.608;8.838;2023-07-09T03:22:36;19.60;56.00
32293;DHT22;43233;48.608;8.838;2023-07-09T03:25:02;19.50;56.20
32293;DHT22;43233;48.608;8.838;2023-07-09T03:27:27;19.50;56.60
32293;DHT22;43233;48.608;8.838;2023-07-09T03:29:53;19.40;56.80
32293;DHT22;43233;48.608;8.838;2023-07-09T03:32:19;19.40;57.20
32293;DHT22;43233;48.608;8.838;2023-07-09T03:34:44;19.30;57.10
32293;DHT22;43233;48.608;8.838;2023-07-09T03:37:10;19.30;57.50
32293;DHT22;43233;48.608;8.838;2023-07-09T03:39:35;19.30;57.30
32293;DHT22;43233;48.608;8.838;2023-07-09T03:42:01;19.30;57.40
32293;DHT22;43233;48.608;8.838;2023-07-09T03:44:27;19.30;57.50
32293;DHT22;43233;48.608;8.838;2023-07-09T03:46:52;19.30;57.50
32293;DHT22;43233;48.608;8.838;2023-07-09T03:49:18;19.30;57.80
32293;DHT22;43233;48.608;8.838;2023-07-09T03:51:43;19.20;58.20
32293;DHT22;43233;48.608;8.838;2023-07-09T03:54:09;19.20;58.20
32293;DHT22;43233;48.608;8.838;2023-07-09T03:56:35;19.20;58.30
32293;DHT22;43233;48.608;8.838;2023-07-09T03:59:02;19.20;58.50
32293;DHT22;43233;48.608;8.838;2023-07-09T04:01:28;19.20;58.50
32293;DHT22;43233;48.608;8.838;2023-07-09T04:03:53;19.20;58.50
32293;DHT22;43233;48.608;8.838;2023-07-09T04:06:19;19.20;58.50
32293;DHT22;43233;48.608;8.838;2023-07-09T04:08:44;19.30;58.60
32293;DHT22;43233;48.608;8.838;2023-07-09T04:11:10;19.40;58.40
32293;DHT22;43233;48.608;8.838;2023-07-09T04:13:36;19.40;58.40
32293;DHT22;43233;48.608;8.838;2023-07-09T04:16:01;19.40;58.40
32293;DHT22;43233;48.608;8.838;2023-07-09T04:18:27;19.50;58.30
32293;DHT22;43233;48.608;8.838;2023-07-09T04:20:53;19.50;58.10
32293;DHT22;43233;48.608;8.838;2023-07-09T04:23:19;19.50;58.30
32293;DHT22;43233;48.608;8.838;2023-07-09T04:25:45;19.50;58.40
32293;DHT22;43233;48.608;8.838;2023-07-09T04:28:11;19.50;58.50
32293;DHT22;43233;48.608;8.838;2023-07-09T04:30:37;19.50;58.90
32293;DHT22;43233;48.608;8.838;2023-07-09T04:33:03;19.50;59.30
32293;DHT22;43233;48.608;8.838;2023-07-09T04:35:28;19.50;59.10
32293;DHT22;43233;48.608;8.838;2023-07-09T04:37:54;19.60;59.20
32293;DHT22;43233;48.608;8.838;2023-07-09T04:40:20;19.60;58.90
32293;DHT22;43233;48.608;8.838;2023-07-09T04:42:46;19.60;58.60
32293;DHT22;43233;48.608;8.838;2023-07-09T04:45:12;19.70;59.10
32293;DHT22;43233;48.608;8.838;2023-07-09T04:47:38;19.70;61.80
32293;DHT22;43233;48.608;8.838;2023-07-09T04:50:06;19.80;59.30
32293;DHT22;43233;48.608;8.838;2023-07-09T04:52:33;19.80;59.10
32293;DHT22;43233;48.608;8.838;2023-07-09T04:54:59;19.80;60.10
32293;DHT22;43233;48.608;8.838;2023-07-09T04:57:26;19.90;58.80
32293;DHT22;43233;48.608;8.838;2023-07-09T04:59:52;20.00;58.60
32293;DHT22;43233;48.608;8.838;2023-07-09T05:02:17;20.00;58.50
32293;DHT22;43233;48.608;8.838;2023-07-09T05:04:43;20.10;58.60
32293;DHT22;43233;48.608;8.838;2023-07-09T05:07:09;20.20;58.50
32293;DHT22;43233;48.608;8.838;2023-07-09T05:09:35;20.30;58.40
32293;DHT22;43233;48.608;8.838;2023-07-09T05:12:00;20.30;58.10
32293;DHT22;43233;48.608;8.838;2023-07-09T05:14:29;20.30;57.70
32293;DHT22;43233;48.608;8.838;2023-07-09T05:16:55;20.40;57.50
32293;DHT22;43233;48.608;8.838;2023-07-09T05:19:20;20.40;57.10
32293;DHT22;43233;48.608;8.838;2023-07-09T05:21:46;20.40;57.10
32293;DHT22;43233;48.608;8.838;2023-07-09T05:24:11;20.50;57.00
32293;DHT22;43233;48.608;8.838;2023-07-09T05:26:37;20.40;56.80
32293;DHT22;43233;48.608;8.838;2023-07-09T05:29:04;20.40;56.40
32293;DHT22;43233;48.608;8.838;2023-07-09T05:31:31;20.50;56.20
32293;DHT22;43233;48.608;8.838;2023-07-09T05:33:58;20.50;56.10
32293;DHT22;43233;48.608;8.838;2023-07-09T05:36:25;20.50;55.60
32293;DHT22;43233;48.608;8.838;2023-07-09T05:38:51;20.50;55.70
32293;DHT22;43233;48.608;8.838;2023-07-09T05:41:16;20.60;55.70
32293;DHT22;43233;48.608;8.838;2023-07-09T05:43:43;20.60;55.90
32293;DHT22;43233;48.608;8.838;2023-07-09T05:46:13;20.70;55.90
32293;DHT22;43233;48.608;8.838;2023-07-09T05:48:39;20.70;55.70
32293;DHT22;43233;48.608;8.838;2023-07-09T05:51:05;20.80;55.10
32293;DHT22;43233;48.608;8.838;2023-07-09T05:53:30;20.90;55.20
32293;DHT22;43233;48.608;8.838;2023-07-09T05:55:57;20.90;54.70
32293;DHT22;43233;48.608;8.838;2023-07-09T05:58:23;21.00;54.30
32293;DHT22;43233;48.608;8.838;2023-07-09T06:00:55;21.10;54.20
32293;DHT22;43233;48.608;8.838;2023-07-09T06:03:25;21.20;54.20
32293;DHT22;43233;48.608;8.838;2023-07-09T06:05:52;21.20;54.50
32293;DHT22;43233;48.608;8.838;2023-07-09T06:08:21;21.30;55.20
32293;DHT22;43233;48.608;8.838;2023-07-09T06:11:13;21.40;54.30
32293;DHT22;43233;48.608;8.838;2023-07-09T06:13:39;21.50;54.40
32293;DHT22;43233;48.608;8.838;2023-07-09T06:16:05;21.60;54.20
32293;DHT22;43233;48.608;8.838;2023-07-09T06:18:31;21.70;53.90
32293;DHT22;43233;48.608;8.838;2023-07-09T06:20:58;21.80;53.40
32293;DHT22;43233;48.608;8.838;2023-07-09T06:23:24;21.90;53.10
32293;DHT22;43233;48.608;8.838;2023-07-09T06:25:50;22.00;52.70
32293;DHT22;43233;48.608;8.838;2023-07-09T06:28:21;22.00;52.40
32293;DHT22;43233;48.608;8.838;2023-07-09T06:30:47;22.20;52.10
32293;DHT22;43233;48.608;8.838;2023-07-09T06:33:15;22.20;51.60
32293;DHT22;43233;48.608;8.838;2023-07-09T06:35:49;22.40;51.60
32293;DHT22;43233;48.608;8.838;2023-07-09T06:38:15;22.40;51.50
32293;DHT22;43233;48.608;8.838;2023-07-09T06:40:41;22.50;51.00
32293;DHT22;43233;48.608;8.838;2023-07-09T06:43:07;22.60;50.60
32293;DHT22;43233;48.608;8.838;2023-07-09T06:45:33;22.60;50.50
32293;DHT22;43233;48.608;8.838;2023-07-09T06:48:00;22.70;50.10
32293;DHT22;43233;48.608;8.838;2023-07-09T06:50:26;22.80;50.00
32293;DHT22;43233;48.608;8.838;2023-07-09T06:52:51;22.90;49.90
32293;DHT22;43233;48.608;8.838;2023-07-09T06:55:17;23.00;49.60
32293;DHT22;43233;48.608;8.838;2023-07-09T06:57:43;23.10;49.30
32293;DHT22;43233;48.608;8.838;2023-07-09T07:00:09;23.20;49.00
32293;DHT22;43233;48.608;8.838;2023-07-09T07:02:34;23.30;48.60
32293;DHT22;43233;48.608;8.838;2023-07-09T07:05:00;23.40;48.10
32293;DHT22;43233;48.608;8.838;2023-07-09T07:07:26;23.40;47.80
32293;DHT22;43233;48.608;8.838;2023-07-09T07:09:52;23.50;48.10
32293;DHT22;43233;48.608;8.838;2023-07-09T07:12:28;23.60;48.10
32293;DHT22;43233;48.608;8.838;2023-07-09T07:14:55;23.70;47.50
32293;DHT22;43233;48.608;8.838;2023-07-09T07:17:21;23.70;48.70
32293;DHT22;43233;48.608;8.838;2023-07-09T07:19:49;23.80;47.70
32293;DHT22;43233;48.608;8.838;2023-07-09T07:22:15;24.00;47.30
32293;DHT22;43233;48.608;8.838;2023-07-09T07:24:40;24.00;46.90
32293;DHT22;43233;48.608;8.838;2023-07-09T07:27:08;24.10;46.90
32293;DHT22;43233;48.608;8.838;2023-07-09T07:29:33;24.20;45.80
32293;DHT22;43233;48.608;8.838;2023-07-09T07:31:59;24.30;45.70
32293;DHT22;43233;48.608;8.838;2023-07-09T07:34:26;24.40;45.90
32293;DHT22;43233;48.608;8.838;2023-07-09T07:36:51;24.40;45.90
32293;DHT22;43233;48.608;8.838;2023-07-09T07:39:17;24.50;46.00
32293;DHT22;43233;48.608;8.838;2023-07-09T07:41:42;24.60;45.70
32293;DHT22;43233;48.608;8.838;2023-07-09T07:44:08;24.70;45.90
32293;DHT22;43233;48.608;8.838;2023-07-09T07:46:34;24.80;46.30
32293;DHT22;43233;48.608;8.838;2023-07-09T07:49:00;25.00;45.10
32293;DHT22;43233;48.608;8.838;2023-07-09T07:51:26;25.10;44.00
32293;DHT22;43233;48.608;8.838;2023-07-09T07:53:52;25.10;43.10
32293;DHT22;43233;48.608;8.838;2023-07-09T07:56:18;25.20;43.40
32293;DHT22;43233;48.608;8.838;2023-07-09T07:58:44;25.30;42.80
32293;DHT22;43233;48.608;8.838;2023-07-09T08:01:10;25.50;42.30
32293;DHT22;43233;48.608;8.838;2023-07-09T08:03:35;25.60;41.10
32293;DHT22;43233;48.608;8.838;2023-07-09T08:06:01;25.70;41.40
32293;DHT22;43233;48.608;8.838;2023-07-09T08:08:26;25.80;39.00
32293;DHT22;43233;48.608;8.838;2023-07-09T08:11:00;25.80;38.00
32293;DHT22;43233;48.608;8.838;2023-07-09T08:13:26;25.90;38.20
32293;DHT22;43233;48.608;8.838;2023-07-09T08:15:52;26.00;37.60
32293;DHT22;43233;48.608;8.838;2023-07-09T08:18:18;26.10;36.30
32293;DHT22;43233;48.608;8.838;2023-07-09T08:20:44;26.20;34.50
32293;DHT22;43233;48.608;8.838;2023-07-09T08:23:10;26.30;34.60
32293;DHT22;43233;48.608;8.838;2023-07-09T08:25:35;26.40;35.20
32293;DHT22;43233;48.608;8.838;2023-07-09T08:28:01;26.50;34.40
32293;DHT22;43233;48.608;8.838;2023-07-09T08:30:27;26.60;34.40
32293;DHT22;43233;48.608;8.838;2023-07-09T08:32:53;26.70;33.40
32293;DHT22;43233;48.608;8.838;2023-07-09T08:35:18;26.80;33.20
32293;DHT22;43233;48.608;8.838;2023-07-09T08:37:44;26.90;33.10
32293;DHT22;43233;48.608;8.838;2023-07-09T08:40:13;27.00;32.70
32293;DHT22;43233;48.608;8.838;2023-07-09T08:42:44;27.10;32.30
32293;DHT22;43233;48.608;8.838;2023-07-09T08:45:24;27.20;31.50
32293;DHT22;43233;48.608;8.838;2023-07-09T08:48:16;27.30;31.10
32293;DHT22;43233;48.608;8.838;2023-07-09T08:50:51;27.40;31.60
32293;DHT22;43233;48.608;8.838;2023-07-09T08:53:35;27.50;32.00
32293;DHT22;43233;48.608;8.838;2023-07-09T08:56:02;27.70;31.70
32293;DHT22;43233;48.608;8.838;2023-07-09T08:58:31;27.80;31.20
32293;DHT22;43233;48.608;8.838;2023-07-09T09:01:03;27.90;31.30
32293;DHT22;43233;48.608;8.838;2023-07-09T09:06:12;28.20;30.20
32293;DHT22;43233;48.608;8.838;2023-07-09T09:08:55;28.20;30.10
32293;DHT22;43233;48.608;8.838;2023-07-09T09:14:02;28.30;29.50
32293;DHT22;43233;48.608;8.838;2023-07-09T09:16:33;28.40;29.50
32293;DHT22;43233;48.608;8.838;2023-07-09T09:19:01;28.50;28.80
32293;DHT22;43233;48.608;8.838;2023-07-09T09:21:34;28.60;28.90
32293;DHT22;43233;48.608;8.838;2023-07-09T09:24:17;28.60;28.40
32293;DHT22;43233;48.608;8.838;2023-07-09T09:26:46;28.70;27.30
32293;DHT22;43233;48.608;8.838;2023-07-09T09:29:15;28.80;26.90
32293;DHT22;43233;48.608;8.838;2023-07-09T09:31:43;29.00;26.90
32293;DHT22;43233;48.608;8.838;2023-07-09T09:34:21;29.10;26.60
32293;DHT22;43233;48.608;8.838;2023-07-09T09:36:47;29.10;26.50
32293;DHT22;43233;48.608;8.838;2023-07-09T09:39:13;29.30;27.10
32293;DHT22;43233;48.608;8.838;2023-07-09T09:41:39;29.40;26.20
32293;DHT22;43233;48.608;8.838;2023-07-09T09:44:35;29.50;25.60
32293;DHT22;43233;48.608;8.838;2023-07-09T09:47:00;29.60;25.50
32293;DHT22;43233;48.608;8.838;2023-07-09T09:49:26;29.60;25.70
32293;DHT22;43233;48.608;8.838;2023-07-09T09:51:53;29.70;26.00
32293;DHT22;43233;48.608;8.838;2023-07-09T09:54:27;29.80;24.70
32293;DHT22;43233;48.608;8.838;2023-07-09T09:56:53;30.00;25.20
32293;DHT22;43233;48.608;8.838;2023-07-09T09:59:30;30.20;24.50
32293;DHT22;43233;48.608;8.838;2023-07-09T10:01:59;30.30;24.80
32293;DHT22;43233;48.608;8.838;2023-07-09T10:04:26;30.40;24.50
32293;DHT22;43233;48.608;8.838;2023-07-09T10:06:56;30.50;27.00
32293;DHT22;43233;48.608;8.838;2023-07-09T10:15:00;30.80;25.90
32293;DHT22;43233;48.608;8.838;2023-07-09T10:17:39;30.90;23.00
32293;DHT22;43233;48.608;8.838;2023-07-09T10:23:28;31.10;22.80
32293;DHT22;43233;48.608;8.838;2023-07-09T10:26:08;31.20;23.10
32293;DHT22;43233;48.608;8.838;2023-07-09T10:28:54;31.40;23.40
32293;DHT22;43233;48.608;8.838;2023-07-09T10:31:22;31.40;23.50
32293;DHT22;43233;48.608;8.838;2023-07-09T10:39:57;31.80;21.40
32293;DHT22;43233;48.608;8.838;2023-07-09T10:45:31;32.00;21.30
32293;DHT22;43233;48.608;8.838;2023-07-09T10:48:10;32.10;20.40
32293;DHT22;43233;48.608;8.838;2023-07-09T10:50:42;32.10;26.30
32293;DHT22;43233;48.608;8.838;2023-07-09T10:53:24;32.20;26.90
32293;DHT22;43233;48.608;8.838;2023-07-09T10:56:00;32.50;21.20
32293;DHT22;43233;48.608;8.838;2023-07-09T10:58:36;32.40;21.60
32293;DHT22;43233;48.608;8.838;2023-07-09T11:01:04;32.40;20.40
32293;DHT22;43233;48.608;8.838;2023-07-09T11:06:14;32.60;25.00
32293;DHT22;43233;48.608;8.838;2023-07-09T11:08:42;32.80;24.20
32293;DHT22;43233;48.608;8.838;2023-07-09T11:11:17;32.80;24.30
32293;DHT22;43233;48.608;8.838;2023-07-09T11:13:56;33.10;19.50
32293;DHT22;43233;48.608;8.838;2023-07-09T11:16:38;33.20;19.60
32293;DHT22;43233;48.608;8.838;2023-07-09T11:19:05;33.20;20.00
32293;DHT22;43233;48.608;8.838;2023-07-09T11:21:32;33.30;20.00
32293;DHT22;43233;48.608;8.838;2023-07-09T11:23:59;33.40;20.00
32293;DHT22;43233;48.608;8.838;2023-07-09T11:29:09;33.60;19.30
32293;DHT22;43233;48.608;8.838;2023-07-09T11:31:41;33.80;18.90
32293;DHT22;43233;48.608;8.838;2023-07-09T11:34:14;33.90;19.10
32293;DHT22;43233;48.608;8.838;2023-07-09T11:39:28;34.00;22.20
32293;DHT22;43233;48.608;8.838;2023-07-09T11:41:55;34.10;19.30
32293;DHT22;43233;48.608;8.838;2023-07-09T11:44:26;34.10;20.20
32293;DHT22;43233;48.608;8.838;2023-07-09T11:50:23;34.40;18.60
32293;DHT22;43233;48.608;8.838;2023-07-09T11:52:47;34.50;18.50
32293;DHT22;43233;48.608;8.838;2023-07-09T11:55:36;34.60;18.20
32293;DHT22;43233;48.608;8.838;2023-07-09T11:58:04;34.70;18.30
32293;DHT22;43233;48.608;8.838;2023-07-09T12:00:41;34.80;17.90
32293;DHT22;43233;48.608;8.838;2023-07-09T12:03:52;34.80;16.20
32293;DHT22;43233;48.608;8.838;2023-07-09T12:06:04;34.80;18.90
32293;DHT22;43233;48.608;8.838;2023-07-09T12:08:32;35.00;23.30
32293;DHT22;43233;48.608;8.838;2023-07-09T12:10:59;35.10;16.60
32293;DHT22;43233;48.608;8.838;2023-07-09T12:13:24;35.20;16.70
32293;DHT22;43233;48.608;8.838;2023-07-09T12:15:50;35.30;16.20
32293;DHT22;43233;48.608;8.838;2023-07-09T12:18:16;35.40;15.90
32293;DHT22;43233;48.608;8.838;2023-07-09T12:20:47;35.40;16.40
32293;DHT22;43233;48.608;8.838;2023-07-09T12:23:20;35.50;16.40
32293;DHT22;43233;48.608;8.838;2023-07-09T12:25:49;35.60;16.30
32293;DHT22;43233;48.608;8.838;2023-07-09T12:28:15;35.70;16.90
32293;DHT22;43233;48.608;8.838;2023-07-09T12:30:48;35.80;16.10
32293;DHT22;43233;48.608;8.838;2023-07-09T12:33:25;35.90;15.90
32293;DHT22;43233;48.608;8.838;2023-07-09T12:36:03;36.10;16.30
32293;DHT22;43233;48.608;8.838;2023-07-09T12:38:40;36.10;15.70
32293;DHT22;43233;48.608;8.838;2023-07-09T12:41:17;36.20;16.40
32293;DHT22;43233;48.608;8.838;2023-07-09T12:43:44;36.30;15.80
32293;DHT22;43233;48.608;8.838;2023-07-09T12:46:10;36.30;14.90
32293;DHT22;43233;48.608;8.838;2023-07-09T12:48:36;36.10;15.30
32293;DHT22;43233;48.608;8.838;2023-07-09T12:51:07;36.00;15.00
32293;DHT22;43233;48.608;8.838;2023-07-09T12:53:32;35.80;14.50
32293;DHT22;43233;48.608;8.838;2023-07-09T12:56:00;35.60;18.90
32293;DHT22;43233;48.608;8.838;2023-07-09T12:58:29;35.40;15.60
32293;DHT22;43233;48.608;8.838;2023-07-09T13:00:56;35.30;17.40
32293;DHT22;43233;48.608;8.838;2023-07-09T13:03:28;35.30;18.00
32293;DHT22;43233;48.608;8.838;2023-07-09T13:06:05;35.10;19.00
32293;DHT22;43233;48.608;8.838;2023-07-09T13:08:43;35.00;18.90
32293;DHT22;43233;48.608;8.838;2023-07-09T13:11:16;35.20;20.00
32293;DHT22;43233;48.608;8.838;2023-07-09T13:13:41;35.30;21.70
32293;DHT22;43233;48.608;8.838;2023-07-09T13:16:07;35.40;19.10
32293;DHT22;43233;48.608;8.838;2023-07-09T13:18:33;35.60;18.80
32293;DHT22;43233;48.608;8.838;2023-07-09T13:20:59;35.60;18.90
32293;DHT22;43233;48.608;8.838;2023-07-09T13:23:29;35.60;17.20
32293;DHT22;43233;48.608;8.838;2023-07-09T13:25:58;35.60;19.40
32293;DHT22;43233;48.608;8.838;2023-07-09T13:28:26;35.90;13.90
32293;DHT22;43233;48.608;8.838;2023-07-09T13:30:55;36.00;13.60
32293;DHT22;43233;48.608;8.838;2023-07-09T13:33:21;36.10;13.20
32293;DHT22;43233;48.608;8.838;2023-07-09T13:35:47;36.20;12.80
32293;DHT22;43233;48.608;8.838;2023-07-09T13:38:18;36.10;12.40
32293;DHT22;43233;48.608;8.838;2023-07-09T13:40:46;35.80;12.30
32293;DHT22;43233;48.608;8.838;2023-07-09T13:43:22;35.70;13.00
32293;DHT22;43233;48.608;8.838;2023-07-09T13:45:48;35.70;13.20
32293;DHT22;43233;48.608;8.838;2023-07-09T13:48:17;35.60;13.10
32293;DHT22;43233;48.608;8.838;2023-07-09T13:50:45;35.50;13.20
32293;DHT22;43233;48.608;8.838;2023-07-09T13:53:16;35.50;13.50
32293;DHT22;43233;48.608;8.838;2023-07-09T13:55:42;35.40;13.60
32293;DHT22;43233;48.608;8.838;2023-07-09T13:58:13;35.50;14.20
32293;DHT22;43233;48.608;8.838;2023-07-09T14:00:40;35.70;13.70
32293;DHT22;43233;48.608;8.838;2023-07-09T14:03:33;35.70;13.80
32293;DHT22;43233;48.608;8.838;2023-07-09T14:05:59;35.80;13.30
32293;DHT22;43233;48.608;8.838;2023-07-09T14:08:25;35.90;13.00
32293;DHT22;43233;48.608;8.838;2023-07-09T14:10:51;36.10;13.00
32293;DHT22;43233;48.608;8.838;2023-07-09T14:13:19;36.10;13.20
32293;DHT22;43233;48.608;8.838;2023-07-09T14:15:46;36.20;13.40
32293;DHT22;43233;48.608;8.838;2023-07-09T14:18:15;36.30;12.80
32293;DHT22;43233;48.608;8.838;2023-07-09T14:20:41;36.40;12.70
32293;DHT22;43233;48.608;8.838;2023-07-09T14:23:15;36.50;13.40
32293;DHT22;43233;48.608;8.838;2023-07-09T14:25:42;36.60;14.00
32293;DHT22;43233;48.608;8.838;2023-07-09T14:28:16;36.50;16.10
32293;DHT22;43233;48.608;8.838;2023-07-09T14:30:42;36.40;14.80
32293;DHT22;43233;48.608;8.838;2023-07-09T14:33:18;36.40;13.60
32293;DHT22;43233;48.608;8.838;2023-07-09T14:35:45;36.30;14.10
32293;DHT22;43233;48.608;8.838;2023-07-09T14:38:22;36.50;13.40
32293;DHT22;43233;48.608;8.838;2023-07-09T14:40:52;36.60;13.80
32293;DHT22;43233;48.608;8.838;2023-07-09T14:43:18;36.60;13.60
32293;DHT22;43233;48.608;8.838;2023-07-09T14:45:43;36.80;13.00
32293;DHT22;43233;48.608;8.838;2023-07-09T14:48:11;37.00;13.20
32293;DHT22;43233;48.608;8.838;2023-07-09T14:50:38;37.00;12.80
32293;DHT22;43233;48.608;8.838;2023-07-09T14:53:04;37.00;13.00
32293;DHT22;43233;48.608;8.838;2023-07-09T14:55:30;36.70;12.30
32293;DHT22;43233;48.608;8.838;2023-07-09T14:57:56;36.40;12.70
32293;DHT22;43233;48.608;8.838;2023-07-09T15:00:26;36.20;13.30
32293;DHT22;43233;48.608;8.838;2023-07-09T15:02:52;36.00;13.30
32293;DHT22;43233;48.608;8.838;2023-07-09T15:05:21;35.90;13.00
32293;DHT22;43233;48.608;8.838;2023-07-09T15:07:47;35.90;12.60
32293;DHT22;43233;48.608;8.838;2023-07-09T15:10:31;35.90;13.60
32293;DHT22;43233;48.608;8.838;2023-07-09T15:12:57;36.20;13.80
32293;DHT22;43233;48.608;8.838;2023-07-09T15:15:27;36.30;13.40
32293;DHT22;43233;48.608;8.838;2023-07-09T15:17:57;36.50;13.20
32293;DHT22;43233;48.608;8.838;2023-07-09T15:20:25;36.50;13.00
32293;DHT22;43233;48.608;8.838;2023-07-09T15:22:52;36.60;13.10
32293;DHT22;43233;48.608;8.838;2023-07-09T15:25:22;36.60;12.80
32293;DHT22;43233;48.608;8.838;2023-07-09T15:27:49;36.50;13.10
32293;DHT22;43233;48.608;8.838;2023-07-09T15:30:20;36.50;13.10
32293;DHT22;43233;48.608;8.838;2023-07-09T15:32:47;36.50;12.40
32293;DHT22;43233;48.608;8.838;2023-07-09T15:35:15;36.50;12.80
32293;DHT22;43233;48.608;8.838;2023-07-09T15:37:41;36.40;13.10
32293;DHT22;43233;48.608;8.838;2023-07-09T15:40:20;36.30;13.40
32293;DHT22;43233;48.608;8.838;2023-07-09T15:42:48;36.20;13.60
32293;DHT22;43233;48.608;8.838;2023-07-09T15:45:16;36.10;13.30
32293;DHT22;43233;48.608;8.838;2023-07-09T15:47:42;36.00;13.70
32293;DHT22;43233;48.608;8.838;2023-07-09T15:52:46;35.90;13.20
32293;DHT22;43233;48.608;8.838;2023-07-09T15:55:19;35.80;13.10
32293;DHT22;43233;48.608;8.838;2023-07-09T15:57:46;35.70;13.20
32293;DHT22;43233;48.608;8.838;2023-07-09T16:02:46;35.50;13.50
32293;DHT22;43233;48.608;8.838;2023-07-09T16:05:27;35.40;13.30
32293;DHT22;43233;48.608;8.838;2023-07-09T16:07:54;35.10;14.30
32293;DHT22;43233;48.608;8.838;2023-07-09T16:10:23;34.80;15.00
32293;DHT22;43233;48.608;8.838;2023-07-09T16:12:50;34.70;15.00
32293;DHT22;43233;48.608;8.838;2023-07-09T16:15:20;34.60;16.50
32293;DHT22;43233;48.608;8.838;2023-07-09T16:17:47;34.50;16.20
32293;DHT22;43233;48.608;8.838;2023-07-09T16:20:21;34.40;15.30